Time;durP1;ratioP1;P1;durP2;ratioP2;P2;SDS_P1;SDS_P2;PMS_P1;PMS_P2;Temp;Humidity;BMP_temperature;BMP_pressure;BME280_temperature;BME280_humidity;BME280_pressure;Samples;Min_cycle;Max_cycle;Signal;HPM_P1;HPM_P2
2021/04/11 00:02:13;;;;;;;;;;;18.80;51.80;;;;;;5016682;28;19917;-68
2021/04/11 00:04:39;;;;;;;;;;;18.90;51.70;;;;;;5013649;28;19918;-69
2021/04/11 00:07:04;;;;;;;;;;;18.80;51.80;;;;;;5013680;28;19936;-69
2021/04/11 00:09:30;;;;;;;;;;;18.80;51.80;;;;;;5011906;28;19922;-67
2021/04/11 00:11:55;;;;;;;;;;;18.80;51.70;;;;;;5013701;28;19921;-69
2021/04/11 00:14:21;;;;;;;;;;;18.90;51.70;;;;;;5033856;23;19928;-53
2021/04/11 00:16:46;;;;;;;;;;;18.90;51.70;;;;;;5059769;28;19921;-59
2021/04/11 00:19:11;;;;;;;;;;;18.90;51.40;;;;;;5061513;28;19993;-57
2021/04/11 00:21:37;;;;;;;;;;;18.90;51.60;;;;;;5061819;28;20420;-52
2021/04/11 00:24:03;;;;;;;;;;;18.90;51.50;;;;;;5061098;28;19917;-58
2021/04/11 00:26:28;;;;;;;;;;;19.00;51.60;;;;;;5061091;28;19927;-54
2021/04/11 00:28:53;;;;;;;;;;;19.00;51.50;;;;;;5061559;28;19924;-51
2021/04/11 00:31:19;;;;;;;;;;;19.00;51.40;;;;;;5062124;28;20377;-58
2021/04/11 00:33:44;;;;;;;;;;;18.90;51.40;;;;;;5061518;28;19920;-58
2021/04/11 00:36:13;;;;;;;;;;;18.90;51.60;;;;;;5061634;28;19917;-57
2021/04/11 00:38:39;;;;;;;;;;;18.80;51.80;;;;;;5043772;28;20362;-60
2021/04/11 00:41:13;;;;;;;;;;;18.90;52.00;;;;;;5042791;28;19969;-61
2021/04/11 00:43:39;;;;;;;;;;;18.90;52.10;;;;;;5060404;28;19923;-54
2021/04/11 00:46:07;;;;;;;;;;;18.80;51.90;;;;;;5029084;28;19916;-54
2021/04/11 00:48:33;;;;;;;;;;;18.80;51.90;;;;;;5040893;28;19939;-51
2021/04/11 00:51:00;;;;;;;;;;;18.80;52.00;;;;;;5041600;28;20007;-53
2021/04/11 00:53:26;;;;;;;;;;;18.80;51.90;;;;;;5040051;28;20285;-62
2021/04/11 00:55:51;;;;;;;;;;;18.90;51.90;;;;;;5042162;28;19917;-53
2021/04/11 00:58:17;;;;;;;;;;;18.90;52.00;;;;;;5049432;28;19920;-59
2021/04/11 01:00:42;;;;;;;;;;;18.90;51.90;;;;;;5060899;28;19917;-59
2021/04/11 01:03:08;;;;;;;;;;;18.90;52.00;;;;;;5061519;28;19952;-57
2021/04/11 01:05:34;;;;;;;;;;;18.90;51.80;;;;;;5060708;28;19924;-58
2021/04/11 01:08:00;;;;;;;;;;;18.90;52.50;;;;;;5059635;28;20084;-51
2021/04/11 01:10:26;;;;;;;;;;;18.90;51.90;;;;;;5060073;28;20576;-54
2021/04/11 01:12:52;;;;;;;;;;;18.90;51.90;;;;;;5059964;28;20352;-51
2021/04/11 01:15:20;;;;;;;;;;;18.90;51.80;;;;;;5059039;28;19932;-52
2021/04/11 01:17:46;;;;;;;;;;;18.90;51.80;;;;;;5059255;28;19916;-52
2021/04/11 01:20:12;;;;;;;;;;;18.90;51.80;;;;;;5059654;28;19925;-54
2021/04/11 01:22:56;;;;;;;;;;;18.90;51.90;;;;;;5057539;28;20297;-50
2021/04/11 01:25:24;;;;;;;;;;;18.90;51.80;;;;;;5060891;28;19916;-51
2021/04/11 01:27:49;;;;;;;;;;;18.90;52.20;;;;;;5060601;28;19951;-56
2021/04/11 01:30:19;;;;;;;;;;;18.90;52.30;;;;;;5058227;28;20543;-57
2021/04/11 01:32:44;;;;;;;;;;;18.90;52.30;;;;;;5047071;28;19925;-61
2021/04/11 01:35:11;;;;;;;;;;;18.90;52.20;;;;;;5046599;28;19927;-56
2021/04/11 01:37:36;;;;;;;;;;;18.90;52.20;;;;;;5047090;28;19927;-52
2021/04/11 01:40:02;;;;;;;;;;;18.90;52.20;;;;;;5046209;28;20293;-57
2021/04/11 01:42:27;;;;;;;;;;;19.00;52.10;;;;;;5046557;28;20003;-54
2021/04/11 01:44:53;;;;;;;;;;;19.00;52.00;;;;;;5047056;28;19916;-60
2021/04/11 01:47:18;;;;;;;;;;;19.00;51.90;;;;;;5046858;28;19923;-58
2021/04/11 01:49:44;;;;;;;;;;;19.00;51.90;;;;;;5065336;28;20278;-61
2021/04/11 01:52:12;;;;;;;;;;;19.00;52.60;;;;;;5047356;28;19924;-56
2021/04/11 01:54:37;;;;;;;;;;;19.00;51.90;;;;;;5065166;28;19920;-53
2021/04/11 01:57:10;;;;;;;;;;;19.00;51.80;;;;;;5064197;28;19947;-60
2021/04/11 01:59:36;;;;;;;;;;;19.00;51.80;;;;;;5029567;28;19924;-59
2021/04/11 02:02:01;;;;;;;;;;;19.00;51.70;;;;;;5064912;28;20019;-60
2021/04/11 02:04:27;;;;;;;;;;;19.00;51.70;;;;;;5046761;28;20389;-55
2021/04/11 02:06:53;;;;;;;;;;;19.00;51.60;;;;;;5047266;28;19916;-60
2021/04/11 02:09:20;;;;;;;;;;;19.00;51.60;;;;;;5064401;28;20249;-60
2021/04/11 02:11:46;;;;;;;;;;;19.00;51.50;;;;;;5046129;28;20279;-53
2021/04/11 02:14:12;;;;;;;;;;;19.00;51.50;;;;;;5046532;28;19916;-56
2021/04/11 02:16:37;;;;;;;;;;;19.10;51.40;;;;;;5046357;28;19920;-59
2021/04/11 02:19:07;;;;;;;;;;;19.00;51.30;;;;;;5046162;28;20035;-55
2021/04/11 02:21:32;;;;;;;;;;;19.10;51.30;;;;;;5046346;28;19927;-52
2021/04/11 02:23:58;;;;;;;;;;;19.10;51.20;;;;;;5046859;28;20343;-61
2021/04/11 02:26:23;;;;;;;;;;;19.10;51.00;;;;;;5065311;28;19916;-63
2021/04/11 02:28:49;;;;;;;;;;;19.10;51.00;;;;;;5064010;28;20293;-51
2021/04/11 02:31:18;;;;;;;;;;;19.20;51.00;;;;;;5064143;28;19928;-59
2021/04/11 02:33:50;;;;;;;;;;;19.10;51.00;;;;;;5064121;28;19920;-56
2021/04/11 02:36:16;;;;;;;;;;;19.20;50.90;;;;;;5045994;28;19931;-63
2021/04/11 02:38:42;;;;;;;;;;;19.20;50.90;;;;;;5045591;28;20325;-51
2021/04/11 02:41:07;;;;;;;;;;;19.20;50.90;;;;;;5044713;28;19923;-57
2021/04/11 02:43:33;;;;;;;;;;;19.20;50.90;;;;;;5045878;28;19991;-54
2021/04/11 02:45:58;;;;;;;;;;;19.10;50.90;;;;;;5029752;28;19916;-50
2021/04/11 02:48:23;;;;;;;;;;;19.20;50.90;;;;;;5046347;28;20592;-54
2021/04/11 02:50:49;;;;;;;;;;;19.10;50.80;;;;;;5045867;28;19917;-56
2021/04/11 02:53:19;;;;;;;;;;;19.10;50.90;;;;;;5043873;28;19924;-61
2021/04/11 02:55:44;;;;;;;;;;;19.10;50.80;;;;;;5062908;28;20281;-60
2021/04/11 02:58:11;;;;;;;;;;;19.20;50.80;;;;;;5070084;28;19925;-58
2021/04/11 03:00:37;;;;;;;;;;;19.10;50.80;;;;;;5042405;28;19921;-62
2021/04/11 03:03:03;;;;;;;;;;;19.10;50.70;;;;;;5042728;28;19962;-58
2021/04/11 03:05:28;;;;;;;;;;;19.20;50.80;;;;;;5042391;28;19921;-58
2021/04/11 03:07:55;;;;;;;;;;;19.20;50.70;;;;;;5042294;28;19924;-58
2021/04/11 03:10:28;;;;;;;;;;;19.20;50.60;;;;;;5043160;28;19923;-55
2021/04/11 03:12:53;;;;;;;;;;;19.20;50.60;;;;;;5042543;28;19916;-59
2021/04/11 03:15:19;;;;;;;;;;;19.20;50.60;;;;;;5042336;28;19924;-57
2021/04/11 03:17:47;;;;;;;;;;;19.10;50.50;;;;;;5052599;28;20053;-53
2021/04/11 03:20:20;;;;;;;;;;;19.20;50.60;;;;;;5061553;28;20023;-55
2021/04/11 03:22:45;;;;;;;;;;;19.20;50.60;;;;;;5062263;28;20013;-57
2021/04/11 03:25:11;;;;;;;;;;;19.20;50.60;;;;;;5063855;28;19959;-58
2021/04/11 03:27:46;;;;;;;;;;;19.20;50.60;;;;;;5061262;28;19916;-59
2021/04/11 03:30:11;;;;;;;;;;;19.20;50.60;;;;;;5061568;28;19970;-53
2021/04/11 03:32:42;;;;;;;;;;;19.20;50.50;;;;;;5062196;28;20007;-60
2021/04/11 03:35:08;;;;;;;;;;;19.20;50.50;;;;;;5061843;28;19917;-54
2021/04/11 03:37:33;;;;;;;;;;;19.20;50.50;;;;;;5043351;28;19920;-56
2021/04/11 03:39:59;;;;;;;;;;;19.10;50.40;;;;;;5044616;28;19926;-62
2021/04/11 03:42:25;;;;;;;;;;;19.20;50.50;;;;;;5045936;28;19917;-60
2021/04/11 03:44:57;;;;;;;;;;;19.20;50.50;;;;;;5045277;28;19930;-60
2021/04/11 03:47:36;;;;;;;;;;;19.20;50.50;;;;;;5043967;28;19920;-57
2021/04/11 03:50:05;;;;;;;;;;;19.20;50.60;;;;;;5044918;28;20408;-61
2021/04/11 03:52:37;;;;;;;;;;;19.10;50.40;;;;;;5061602;28;19920;-58
2021/04/11 03:55:06;;;;;;;;;;;19.20;50.50;;;;;;5045044;28;19923;-56
2021/04/11 03:57:48;;;;;;;;;;;19.20;50.60;;;;;;5044089;28;19969;-57
2021/04/11 04:00:14;;;;;;;;;;;19.20;50.60;;;;;;5061148;28;19935;-53
2021/04/11 04:02:40;;;;;;;;;;;19.10;50.50;;;;;;5060474;28;19921;-50
2021/04/11 04:05:06;;;;;;;;;;;19.20;50.50;;;;;;5061506;28;19920;-51
2021/04/11 04:07:41;;;;;;;;;;;19.20;50.60;;;;;;5060221;28;20289;-55
2021/04/11 04:10:07;;;;;;;;;;;19.20;50.50;;;;;;5060868;28;19955;-64
2021/04/11 04:12:51;;;;;;;;;;;19.20;50.50;;;;;;5061666;28;20006;-53
2021/04/11 04:15:19;;;;;;;;;;;19.20;50.50;;;;;;5062704;28;19924;-50
2021/04/11 04:18:03;;;;;;;;;;;19.10;50.40;;;;;;5061717;28;20567;-61
2021/04/11 04:20:47;;;;;;;;;;;19.10;50.40;;;;;;5060240;28;19921;-59
2021/04/11 04:23:17;;;;;;;;;;;19.10;50.40;;;;;;5056182;28;19916;-61
2021/04/11 04:25:47;;;;;;;;;;;19.20;50.50;;;;;;5050528;28;19923;-53
2021/04/11 04:28:18;;;;;;;;;;;19.10;50.40;;;;;;5007131;28;19978;-59
2021/04/11 04:30:43;;;;;;;;;;;19.10;50.40;;;;;;5042284;28;20301;-62
2021/04/11 04:33:09;;;;;;;;;;;19.10;50.40;;;;;;5041417;28;19924;-51
2021/04/11 04:35:36;;;;;;;;;;;19.10;50.40;;;;;;5042664;28;19917;-51
2021/04/11 04:38:05;;;;;;;;;;;19.10;50.40;;;;;;5043073;28;20053;-57
2021/04/11 04:40:37;;;;;;;;;;;19.10;50.30;;;;;;5034305;28;19928;-59
2021/04/11 04:43:03;;;;;;;;;;;19.10;50.40;;;;;;5041638;28;19920;-57
2021/04/11 04:45:37;;;;;;;;;;;19.10;50.30;;;;;;5041200;28;19917;-60
2021/04/11 04:48:06;;;;;;;;;;;19.10;50.30;;;;;;5039902;28;20122;-56
2021/04/11 04:50:36;;;;;;;;;;;19.10;50.40;;;;;;5041181;28;19917;-53
2021/04/11 04:53:21;;;;;;;;;;;19.10;50.40;;;;;;5039988;28;20444;-55
2021/04/11 04:55:47;;;;;;;;;;;19.10;50.40;;;;;;5023237;28;19948;-59
2021/04/11 04:58:14;;;;;;;;;;;19.10;50.40;;;;;;5039462;28;19975;-60
2021/04/11 05:00:40;;;;;;;;;;;19.10;50.40;;;;;;5040551;28;19917;-53
2021/04/11 05:03:06;;;;;;;;;;;19.10;50.40;;;;;;5039512;28;20063;-55
2021/04/11 05:05:32;;;;;;;;;;;19.10;50.40;;;;;;5023756;28;19925;-57
2021/04/11 05:08:08;;;;;;;;;;;19.10;50.40;;;;;;5039401;28;19917;-56
2021/04/11 05:10:37;;;;;;;;;;;19.10;50.40;;;;;;5041096;28;19917;-52
2021/04/11 05:13:12;;;;;;;;;;;19.00;50.30;;;;;;5039428;28;19916;-58
2021/04/11 05:15:38;;;;;;;;;;;19.10;50.40;;;;;;5039924;28;19960;-53
2021/04/11 05:18:11;;;;;;;;;;;19.10;50.40;;;;;;5039585;28;19920;-59
2021/04/11 05:20:37;;;;;;;;;;;19.00;50.30;;;;;;5048108;28;19920;-63
2021/04/11 05:23:16;;;;;;;;;;;19.10;50.30;;;;;;5039653;28;19917;-58
2021/04/11 05:26:11;;;;;;;;;;;19.10;50.30;;;;;;5058829;28;20023;-54
2021/04/11 05:28:38;;;;;;;;;;;19.10;50.30;;;;;;5044572;28;19963;-54
2021/04/11 05:31:05;;;;;;;;;;;19.10;50.30;;;;;;5043072;28;19923;-51
2021/04/11 05:33:31;;;;;;;;;;;19.10;50.20;;;;;;5022659;28;19960;-58
2021/04/11 05:36:00;;;;;;;;;;;19.00;50.20;;;;;;5041995;28;19960;-58
2021/04/11 05:38:28;;;;;;;;;;;19.10;50.30;;;;;;5042561;28;19921;-61
2021/04/11 05:41:01;;;;;;;;;;;19.10;50.30;;;;;;5061066;28;19920;-55
2021/04/11 05:43:36;;;;;;;;;;;19.10;50.20;;;;;;5060964;28;19916;-56
2021/04/11 05:46:20;;;;;;;;;;;19.00;50.20;;;;;;5043200;28;19916;-55
2021/04/11 05:49:00;;;;;;;;;;;19.00;50.20;;;;;;5060177;28;19928;-55
2021/04/11 05:51:28;;;;;;;;;;;19.00;50.20;;;;;;5042661;28;19917;-60
2021/04/11 05:53:57;;;;;;;;;;;19.00;50.30;;;;;;5061422;28;19955;-54
2021/04/11 05:56:35;;;;;;;;;;;19.10;50.30;;;;;;5041450;28;19999;-58
2021/04/11 05:59:04;;;;;;;;;;;19.00;50.20;;;;;;5041661;28;19920;-55
2021/04/11 06:01:31;;;;;;;;;;;19.00;50.20;;;;;;5059577;28;19916;-63
2021/04/11 06:03:59;;;;;;;;;;;19.00;50.20;;;;;;5076103;28;20427;-56
2021/04/11 06:06:26;;;;;;;;;;;19.00;50.20;;;;;;5061095;28;20751;-52
2021/04/11 06:09:00;;;;;;;;;;;19.00;50.20;;;;;;5042302;28;19970;-58
2021/04/11 06:11:30;;;;;;;;;;;19.00;50.20;;;;;;5043004;28;19951;-51
2021/04/11 06:14:14;;;;;;;;;;;19.00;50.10;;;;;;5043095;28;19916;-53
2021/04/11 06:16:39;;;;;;;;;;;19.00;50.10;;;;;;5063629;28;19921;-58
2021/04/11 06:19:05;;;;;;;;;;;19.00;50.10;;;;;;5045708;28;19924;-61
2021/04/11 06:21:31;;;;;;;;;;;19.00;50.10;;;;;;5045919;28;19924;-59
2021/04/11 06:23:57;;;;;;;;;;;19.00;50.10;;;;;;5064636;28;19916;-58
2021/04/11 06:26:31;;;;;;;;;;;19.00;50.10;;;;;;5064675;28;19924;-59
2021/04/11 06:28:59;;;;;;;;;;;19.00;50.10;;;;;;5046597;28;19921;-54
2021/04/11 06:31:26;;;;;;;;;;;19.00;50.10;;;;;;5046794;28;20366;-55
2021/04/11 06:33:55;;;;;;;;;;;19.00;50.10;;;;;;5045693;28;20041;-54
2021/04/11 06:36:47;;;;;;;;;;;19.00;50.10;;;;;;5045733;28;19966;-54
2021/04/11 06:39:24;;;;;;;;;;;19.00;50.00;;;;;;5059336;28;19927;-60
2021/04/11 06:42:08;;;;;;;;;;;19.00;49.90;;;;;;5063569;28;19966;-54
2021/04/11 06:44:37;;;;;;;;;;;19.00;50.10;;;;;;5063282;28;20401;-63
2021/04/11 06:47:11;;;;;;;;;;;19.00;50.20;;;;;;5063889;28;19950;-58
2021/04/11 06:50:03;;;;;;;;;;;19.00;50.30;;;;;;5063165;28;19920;-61
2021/04/11 06:52:41;;;;;;;;;;;19.00;50.40;;;;;;5058262;28;20004;-58
2021/04/11 06:55:09;;;;;;;;;;;19.00;50.50;;;;;;5063476;28;19947;-57
2021/04/11 06:57:36;;;;;;;;;;;19.00;50.50;;;;;;5062774;28;20217;-54
2021/04/11 07:00:07;;;;;;;;;;;19.00;50.50;;;;;;5044826;28;20345;-53
2021/04/11 07:02:35;;;;;;;;;;;19.00;50.40;;;;;;5045413;28;19920;-60
2021/04/11 07:05:20;;;;;;;;;;;19.00;50.40;;;;;;5063176;28;19917;-57
2021/04/11 07:07:48;;;;;;;;;;;19.00;50.60;;;;;;5063580;28;19982;-59
2021/04/11 07:10:23;;;;;;;;;;;19.00;50.50;;;;;;5063360;28;20433;-57
2021/04/11 07:13:08;;;;;;;;;;;19.00;50.60;;;;;;5045186;28;19920;-55
2021/04/11 07:15:39;;;;;;;;;;;19.00;50.80;;;;;;5045129;28;19928;-58
2021/04/11 07:18:11;;;;;;;;;;;18.90;51.50;;;;;;5044752;28;20327;-53
2021/04/11 07:20:46;;;;;;;;;;;18.80;52.20;;;;;;5062431;28;19948;-57
2021/04/11 07:23:31;;;;;;;;;;;18.80;52.30;;;;;;5043778;28;19928;-59
2021/04/11 07:26:11;;;;;;;;;;;18.80;52.80;;;;;;5042115;28;20352;-58
2021/04/11 07:28:42;;;;;;;;;;;18.70;52.50;;;;;;5040973;28;22358;-55
2021/04/11 07:31:26;;;;;;;;;;;18.70;52.80;;;;;;5062212;28;19973;-59
2021/04/11 07:33:57;;;;;;;;;;;18.70;52.90;;;;;;5063082;28;19916;-64
2021/04/11 07:36:35;;;;;;;;;;;18.70;52.80;;;;;;5044953;28;20380;-59
2021/04/11 07:39:19;;;;;;;;;;;18.70;53.10;;;;;;5063174;28;19940;-63
2021/04/11 07:41:51;;;;;;;;;;;18.80;53.00;;;;;;5062892;28;19944;-60
2021/04/11 07:44:39;;;;;;;;;;;18.80;53.10;;;;;;5063197;28;19925;-59
2021/04/11 07:47:26;;;;;;;;;;;18.70;53.00;;;;;;5044566;28;19916;-66
2021/04/11 07:49:54;;;;;;;;;;;18.80;53.00;;;;;;5045310;28;20003;-62
2021/04/11 07:52:25;;;;;;;;;;;18.80;53.00;;;;;;5038890;28;19916;-61
2021/04/11 07:54:54;;;;;;;;;;;18.80;52.80;;;;;;5055322;28;20632;-63
2021/04/11 07:57:28;;;;;;;;;;;18.80;52.90;;;;;;5061679;28;19917;-60
2021/04/11 07:59:55;;;;;;;;;;;18.80;52.70;;;;;;5062612;28;20003;-58
2021/04/11 08:02:20;;;;;;;;;;;18.80;53.10;;;;;;5043067;28;19916;-55
2021/04/11 08:05:04;;;;;;;;;;;18.80;53.30;;;;;;5062218;28;19931;-56
2021/04/11 08:07:42;;;;;;;;;;;18.80;53.50;;;;;;5062679;28;20362;-57
2021/04/11 08:10:08;;;;;;;;;;;18.90;53.70;;;;;;5062177;28;19944;-62
2021/04/11 08:12:52;;;;;;;;;;;18.90;53.60;;;;;;5060873;28;20374;-60
2021/04/11 08:15:19;;;;;;;;;;;18.90;53.60;;;;;;5063681;28;20461;-62
2021/04/11 08:17:47;;;;;;;;;;;18.90;53.60;;;;;;5044306;28;19923;-59
2021/04/11 08:20:28;;;;;;;;;;;18.90;53.30;;;;;;5062642;28;19920;-58
2021/04/11 08:23:00;;;;;;;;;;;18.90;53.00;;;;;;5045667;28;19965;-58
2021/04/11 08:25:25;;;;;;;;;;;18.90;52.70;;;;;;5062832;28;19924;-52
2021/04/11 08:27:53;;;;;;;;;;;18.90;52.40;;;;;;5063171;28;19916;-58
2021/04/11 08:30:31;;;;;;;;;;;18.90;52.00;;;;;;5062668;28;19920;-54
2021/04/11 08:32:59;;;;;;;;;;;18.90;51.70;;;;;;5062948;28;20387;-63
2021/04/11 08:35:43;;;;;;;;;;;19.00;51.40;;;;;;5063501;28;20586;-60
2021/04/11 08:38:22;;;;;;;;;;;19.00;51.20;;;;;;5062372;28;19916;-62
2021/04/11 08:40:50;;;;;;;;;;;19.00;50.90;;;;;;5044775;28;19921;-60
2021/04/11 08:43:26;;;;;;;;;;;19.00;50.60;;;;;;5063057;28;19924;-61
2021/04/11 08:46:10;;;;;;;;;;;19.10;50.40;;;;;;5027817;28;19920;-62
2021/04/11 08:49:11;;;;;;;;;;;19.10;50.40;;;;;;5052956;28;20439;-62
2021/04/11 08:51:55;;;;;;;;;;;19.10;50.30;;;;;;4960694;28;20426;-57
2021/04/11 08:54:25;;;;;;;;;;;19.20;50.20;;;;;;5054128;28;20007;-55
2021/04/11 08:56:56;;;;;;;;;;;19.20;50.10;;;;;;5044319;28;19927;-61
2021/04/11 08:59:31;;;;;;;;;;;19.30;49.80;;;;;;5062188;28;19947;-53
2021/04/11 09:02:28;;;;;;;;;;;19.30;49.40;;;;;;5061235;28;20366;-59
2021/04/11 09:05:05;;;;;;;;;;;19.30;49.20;;;;;;5006060;28;19916;-59
2021/04/11 09:07:43;;;;;;;;;;;19.40;49.20;;;;;;5054951;28;19917;-61
2021/04/11 09:10:23;;;;;;;;;;;19.40;49.00;;;;;;5039848;28;20103;-55
2021/04/11 09:12:57;;;;;;;;;;;19.40;48.90;;;;;;5040624;28;19917;-58
2021/04/11 09:15:25;;;;;;;;;;;19.40;48.90;;;;;;5040897;28;19935;-57
2021/04/11 09:17:51;;;;;;;;;;;19.40;48.70;;;;;;5041349;28;19921;-63
2021/04/11 09:20:35;;;;;;;;;;;19.40;48.60;;;;;;5041211;28;19921;-53
2021/04/11 09:23:04;;;;;;;;;;;19.40;48.60;;;;;;5041337;28;19921;-57
2021/04/11 09:25:31;;;;;;;;;;;19.40;48.50;;;;;;5045135;28;19923;-59
2021/04/11 09:28:02;;;;;;;;;;;19.40;48.70;;;;;;5048732;28;20329;-54
2021/04/11 09:30:28;;;;;;;;;;;19.40;48.60;;;;;;5042786;28;19913;-65
2021/04/11 09:33:03;;;;;;;;;;;19.40;48.60;;;;;;5047587;28;19974;-51
2021/04/11 09:35:50;;;;;;;;;;;19.40;48.50;;;;;;5061184;28;19952;-54
2021/04/11 09:38:19;;;;;;;;;;;19.40;48.30;;;;;;5059954;28;19931;-60
2021/04/11 09:40:59;;;;;;;;;;;19.40;48.20;;;;;;5043463;28;19916;-58
2021/04/11 09:43:25;;;;;;;;;;;19.40;48.30;;;;;;5060994;28;19974;-58
2021/04/11 09:46:09;;;;;;;;;;;19.40;48.20;;;;;;5060330;28;19924;-60
2021/04/11 09:48:47;;;;;;;;;;;19.40;48.00;;;;;;5060758;28;20370;-62
2021/04/11 09:51:12;;;;;;;;;;;19.40;47.80;;;;;;5047254;28;20389;-58
2021/04/11 09:53:41;;;;;;;;;;;19.50;48.00;;;;;;5064810;28;19946;-59
2021/04/11 09:56:09;;;;;;;;;;;19.40;47.80;;;;;;5046749;28;19920;-57
2021/04/11 09:58:38;;;;;;;;;;;19.40;47.60;;;;;;5064325;28;19932;-60
2021/04/11 10:01:09;;;;;;;;;;;19.40;47.50;;;;;;5046546;28;19939;-54
2021/04/11 10:03:35;;;;;;;;;;;19.40;47.40;;;;;;5064393;28;19917;-53
2021/04/11 10:06:23;;;;;;;;;;;19.40;47.10;;;;;;5064434;28;19920;-54
2021/04/11 10:09:07;;;;;;;;;;;19.50;47.30;;;;;;5025725;28;20640;-55
2021/04/11 10:11:51;;;;;;;;;;;19.50;47.20;;;;;;5064356;28;19921;-55
2021/04/11 10:14:38;;;;;;;;;;;19.40;47.10;;;;;;5055969;28;19962;-58
2021/04/11 10:17:27;;;;;;;;;;;19.40;47.10;;;;;;5042102;28;19920;-62
2021/04/11 10:19:58;;;;;;;;;;;19.40;47.00;;;;;;5062969;28;19925;-57
2021/04/11 10:22:24;;;;;;;;;;;19.40;47.10;;;;;;5058341;28;19943;-60
2021/04/11 10:25:04;;;;;;;;;;;19.40;47.10;;;;;;5064172;28;20548;-56
2021/04/11 10:27:54;;;;;;;;;;;19.40;47.00;;;;;;5063335;28;20455;-63
2021/04/11 10:30:20;;;;;;;;;;;19.40;46.80;;;;;;5064340;28;19932;-63
2021/04/11 10:32:48;;;;;;;;;;;19.40;46.80;;;;;;5063979;28;19916;-60
2021/04/11 10:35:22;;;;;;;;;;;19.40;46.80;;;;;;5064107;28;19931;-61
2021/04/11 10:37:55;;;;;;;;;;;19.40;46.70;;;;;;5063406;28;19916;-52
2021/04/11 10:40:39;;;;;;;;;;;19.40;46.50;;;;;;5045878;28;19920;-55
2021/04/11 10:43:14;;;;;;;;;;;19.40;46.50;;;;;;5063320;28;20301;-57
2021/04/11 10:45:39;;;;;;;;;;;19.40;46.40;;;;;;5064125;28;19928;-61
2021/04/11 10:48:14;;;;;;;;;;;19.40;46.30;;;;;;5062131;28;19917;-61
2021/04/11 10:50:41;;;;;;;;;;;19.40;46.30;;;;;;5045467;28;19967;-60
2021/04/11 10:53:22;;;;;;;;;;;19.40;46.30;;;;;;5027990;28;20041;-53
2021/04/11 10:56:06;;;;;;;;;;;19.40;46.20;;;;;;5061114;28;19925;-61
2021/04/11 10:58:44;;;;;;;;;;;19.40;46.00;;;;;;5052885;28;19927;-63
2021/04/11 11:01:28;;;;;;;;;;;19.40;46.00;;;;;;5062562;28;20270;-55
2021/04/11 11:03:57;;;;;;;;;;;19.40;45.90;;;;;;5054404;28;20386;-61
2021/04/11 11:06:41;;;;;;;;;;;19.40;45.90;;;;;;5063080;28;20009;-59
2021/04/11 11:09:17;;;;;;;;;;;19.40;45.90;;;;;;5063719;28;20000;-59
2021/04/11 11:11:45;;;;;;;;;;;19.40;45.90;;;;;;5061439;28;20040;-64
2021/04/11 11:14:29;;;;;;;;;;;19.40;45.90;;;;;;5063838;28;19923;-64
2021/04/11 11:17:08;;;;;;;;;;;19.40;45.90;;;;;;5063300;28;19949;-61
2021/04/11 11:19:38;;;;;;;;;;;19.40;45.90;;;;;;5060980;28;19985;-56
2021/04/11 11:22:07;;;;;;;;;;;19.40;45.90;;;;;;5061559;28;20410;-52
2021/04/11 11:24:39;;;;;;;;;;;19.40;45.70;;;;;;5062969;28;19916;-62
2021/04/11 11:27:13;;;;;;;;;;;19.40;45.80;;;;;;5062474;28;20663;-53
2021/04/11 11:29:59;;;;;;;;;;;19.40;45.80;;;;;;5063269;28;20362;-59
2021/04/11 11:32:31;;;;;;;;;;;19.40;45.70;;;;;;5031158;28;20377;-53
2021/04/11 11:35:06;;;;;;;;;;;19.40;45.90;;;;;;5061344;28;19955;-61
2021/04/11 11:37:43;;;;;;;;;;;19.40;45.90;;;;;;5060934;28;19931;-54
2021/04/11 11:40:19;;;;;;;;;;;19.40;45.80;;;;;;5047435;28;19955;-55
2021/04/11 11:43:03;;;;;;;;;;;19.40;45.90;;;;;;5045155;28;19924;-55
2021/04/11 11:45:47;;;;;;;;;;;19.30;45.90;;;;;;5063284;28;19996;-58
2021/04/11 11:48:14;;;;;;;;;;;19.30;45.90;;;;;;5062071;28;19916;-58
2021/04/11 11:50:44;;;;;;;;;;;19.30;46.20;;;;;;5044289;28;19924;-59
2021/04/11 11:53:11;;;;;;;;;;;19.30;46.30;;;;;;5044191;28;20534;-56
2021/04/11 11:55:54;;;;;;;;;;;19.30;46.20;;;;;;5048007;22;19929;-67
2021/04/11 11:58:20;;;;;;;;;;;19.30;46.20;;;;;;5026239;28;20015;-66
2021/04/11 12:00:46;;;;;;;;;;;19.30;46.50;;;;;;5044682;28;19913;-67
2021/04/11 12:03:24;;;;;;;;;;;19.30;46.60;;;;;;5026019;28;19940;-66
2021/04/11 12:06:02;;;;;;;;;;;19.30;46.90;;;;;;5053377;28;19943;-66
2021/04/11 12:08:33;;;;;;;;;;;19.30;47.20;;;;;;5043902;28;19916;-65
2021/04/11 12:11:03;;;;;;;;;;;19.30;47.60;;;;;;5056139;22;20568;-68
2021/04/11 12:13:34;;;;;;;;;;;19.30;47.80;;;;;;5026233;28;19987;-69
2021/04/11 12:15:59;;;;;;;;;;;19.30;48.50;;;;;;5025015;28;20342;-69
2021/04/11 12:18:29;;;;;;;;;;;19.30;48.80;;;;;;5025562;28;19921;-67
2021/04/11 12:21:06;;;;;;;;;;;19.30;49.30;;;;;;5021524;28;20007;-66
2021/04/11 12:23:36;;;;;;;;;;;19.30;49.60;;;;;;5044330;28;20184;-68
2021/04/11 12:26:12;;;;;;;;;;;19.20;50.20;;;;;;5026269;28;19959;-69
2021/04/11 12:28:37;;;;;;;;;;;19.20;50.70;;;;;;5026799;28;19955;-68
2021/04/11 12:31:14;;;;;;;;;;;19.30;51.60;;;;;;5027319;28;20383;-65
2021/04/11 12:33:51;;;;;;;;;;;19.30;52.30;;;;;;5026569;28;19952;-68
2021/04/11 12:36:28;;;;;;;;;;;19.30;52.70;;;;;;5045964;28;19951;-68
2021/04/11 12:38:57;;;;;;;;;;;19.30;52.80;;;;;;5026759;28;19924;-67
2021/04/11 12:41:32;;;;;;;;;;;19.30;52.50;;;;;;5045544;28;19913;-70
2021/04/11 12:44:06;;;;;;;;;;;19.40;52.10;;;;;;5043807;28;19913;-67
2021/04/11 12:46:35;;;;;;;;;;;19.30;51.40;;;;;;5027193;28;19913;-66
2021/04/11 12:49:06;;;;;;;;;;;19.30;51.30;;;;;;5026330;28;20653;-67
2021/04/11 12:51:43;;;;;;;;;;;19.30;51.00;;;;;;5027430;28;20008;-67
2021/04/11 12:54:27;;;;;;;;;;;19.30;51.10;;;;;;5037666;28;19913;-66
2021/04/11 12:56:53;;;;;;;;;;;19.30;50.20;;;;;;5044185;28;20560;-66
2021/04/11 12:59:23;;;;;;;;;;;19.30;49.60;;;;;;5027190;28;19924;-64
2021/04/11 13:01:54;;;;;;;;;;;19.30;49.20;;;;;;5021681;28;19920;-66
2021/04/11 13:04:19;;;;;;;;;;;19.30;49.00;;;;;;5040876;28;19913;-67
2021/04/11 13:07:03;;;;;;;;;;;19.30;51.30;;;;;;5045458;28;19996;-67
2021/04/11 13:09:47;;;;;;;;;;;19.30;52.40;;;;;;5044798;28;19909;-68
2021/04/11 13:12:16;;;;;;;;;;;19.40;52.50;;;;;;5032496;28;19920;-67
2021/04/11 13:14:50;;;;;;;;;;;19.30;52.50;;;;;;5039993;28;19917;-68
2021/04/11 13:17:21;;;;;;;;;;;19.40;52.70;;;;;;5009802;28;19970;-66
2021/04/11 13:19:51;;;;;;;;;;;19.40;52.40;;;;;;5026278;28;19978;-67
2021/04/11 13:22:18;;;;;;;;;;;19.40;52.50;;;;;;5026613;28;19924;-67
2021/04/11 13:24:58;;;;;;;;;;;19.40;52.60;;;;;;5026136;28;19920;-67
2021/04/11 13:27:30;;;;;;;;;;;19.40;52.60;;;;;;5024027;28;19920;-67
2021/04/11 13:30:08;;;;;;;;;;;19.40;52.50;;;;;;5026458;28;20639;-65
2021/04/11 13:32:35;;;;;;;;;;;19.40;52.40;;;;;;5037947;28;19962;-66
2021/04/11 13:35:21;;;;;;;;;;;19.40;52.80;;;;;;5027057;28;19913;-66
2021/04/11 13:37:51;;;;;;;;;;;19.40;52.50;;;;;;5027541;28;19952;-66
2021/04/11 13:40:17;;;;;;;;;;;19.40;52.30;;;;;;5034856;28;19975;-66
2021/04/11 13:42:52;;;;;;;;;;;19.40;52.00;;;;;;5027134;28;20345;-66
2021/04/11 13:45:20;;;;;;;;;;;19.40;51.90;;;;;;5045316;28;19913;-67
2021/04/11 13:48:02;;;;;;;;;;;19.40;51.30;;;;;;5044818;28;20016;-66
2021/04/11 13:50:32;;;;;;;;;;;19.40;50.90;;;;;;5026911;28;20272;-66
2021/04/11 13:53:18;;;;;;;;;;;19.40;50.80;;;;;;5026919;28;19912;-66
2021/04/11 13:55:46;;;;;;;;;;;19.40;50.40;;;;;;5044389;28;19917;-66
2021/04/11 13:58:30;;;;;;;;;;;19.50;50.20;;;;;;5026512;28;19920;-66
2021/04/11 14:01:03;;;;;;;;;;;19.50;50.00;;;;;;5044891;28;19927;-66
2021/04/11 14:03:41;;;;;;;;;;;19.50;49.80;;;;;;5027241;28;20383;-66
2021/04/11 14:06:13;;;;;;;;;;;19.50;49.60;;;;;;5045005;28;19923;-66
2021/04/11 14:08:44;;;;;;;;;;;19.50;49.40;;;;;;5044556;28;19916;-66
2021/04/11 14:11:11;;;;;;;;;;;19.50;49.40;;;;;;5023584;28;19964;-65
2021/04/11 14:13:56;;;;;;;;;;;19.50;49.20;;;;;;5026998;28;20066;-66
2021/04/11 14:16:22;;;;;;;;;;;19.50;49.20;;;;;;5037792;28;19920;-66
2021/04/11 14:19:08;;;;;;;;;;;19.50;48.90;;;;;;5026714;28;19921;-66
2021/04/11 14:21:36;;;;;;;;;;;19.50;49.10;;;;;;5029325;28;19920;-66
2021/04/11 14:24:05;;;;;;;;;;;19.50;48.90;;;;;;5027079;28;20472;-66
2021/04/11 14:26:52;;;;;;;;;;;19.50;48.80;;;;;;5007177;28;19917;-65
2021/04/11 14:29:18;;;;;;;;;;;19.50;48.70;;;;;;5044769;28;19913;-66
2021/04/11 14:31:45;;;;;;;;;;;19.50;48.60;;;;;;5043954;28;19924;-66
2021/04/11 14:34:16;;;;;;;;;;;19.50;48.40;;;;;;5026771;28;19916;-66
2021/04/11 14:36:50;;;;;;;;;;;19.50;48.30;;;;;;5029984;28;19924;-66
2021/04/11 14:39:19;;;;;;;;;;;19.50;48.30;;;;;;5029917;28;19917;-66
2021/04/11 14:41:46;;;;;;;;;;;19.50;48.30;;;;;;5047506;28;19924;-66
2021/04/11 14:44:11;;;;;;;;;;;19.50;48.30;;;;;;5030713;28;20298;-65